Laukaa, Finland
Kieli:  Suomi
-14°C CurCond
Päivitetty20/01/2019 13:35 
 

Lähistön Lentoasemien Säätiloja:

 

EFJY - Jyvaskyla (mil/C,) Finland
Etäisyys Sääasemalta: PKo 21km
Päivitetty: 20/01/2019 13:20
Heikkoa Lumisadetta, Kuurottaisia sateita, Selkeätä
Heikkoa Lumisadetta, Kuurottaisia sateita, Selkeätä
 Tuulen suunta Lu
Tuuli: Lu 17 km/h
Lämpötila: -15°C
Tuulen purevuus: -23°C
Kastepiste: -17°C
Ilmankosteus: 85%
Ilmanpaine: 1004 hPa
Yhteenveto: Heikkoa Lumisadetta, Kuurottaisia sateita
Pilvisyys: Selkeätä
Näkyvyys: 5 km
2019/01/20 11:20 EFJY 201120Z AUTO 31009KT 5000 -SHSN NCD M15/M17 Q1004
EFHA - Halli (fin-Afb), Finland
Etäisyys Sääasemalta: Lo 56km
Päivitetty: 20/01/2019 13:20
Heikkoa Lumisadetta, Kuurottaisia sateita, Pilvistä
Heikkoa Lumisadetta, Kuurottaisia sateita, Pilvistä
 Tuulen suunta Lu
Tuuli: Lu 11 km/h
Lämpötila: -12°C
Tuulen purevuus: -18°C
Kastepiste: -13°C
Ilmankosteus: 92%
Ilmanpaine: 1005 hPa
Yhteenveto: Heikkoa Lumisadetta, Kuurottaisia sateita
Pilvisyys: Pilvistä
Näkyvyys: 8 km
Pilvisyystiedot: Pilvistä 732 m
2019/01/20 11:20 EFHA 201120Z AUTO 31006KT 8000 -SHSN OVC024 M12/M13 Q1005
EFMI - Mikkeli, Finland
Etäisyys Sääasemalta: IKa 105km
Päivitetty: 20/01/2019 13:20
Heikkoa Lumisadetta, Kuurottaisia sateita, Joitain Pilviä
Heikkoa Lumisadetta, Kuurottaisia sateita, Joitain Pilviä
 Tuulen suunta LLu
Tuuli: LLu 9 km/h
Yhteenveto: Heikkoa Lumisadetta, Kuurottaisia sateita
Pilvisyys: Joitain Pilviä
Näkyvyys: 10 km
Pilvisyystiedot: Joitain Pilviä 945 m
2019/01/20 11:20 EFMI 201120Z AUTO 29005KT 240V340 9999 -SHSN FEW031 ///// Q////
 
EFTP - Tampere/Pirkkala, Finland
Etäisyys Sääasemalta: Lo 135km
Päivitetty: 20/01/2019 13:20
Heikkoa Lumisadetta, Kuurottaisia sateita, Joitain Pilviä
Heikkoa Lumisadetta, Kuurottaisia sateita, Joitain Pilviä
 Tuulen suunta LLu
Tuuli: LLu 13 km/h
Lämpötila: -10°C
Tuulen purevuus: -16°C
Kastepiste: -12°C
Ilmankosteus: 85%
Ilmanpaine: 1007 hPa
Yhteenveto: Heikkoa Lumisadetta, Kuurottaisia sateita
Pilvisyys: Joitain Pilviä
Näkyvyys: 10 km
Pilvisyystiedot: Joitain Pilviä 305 m
2019/01/20 11:20 EFTP 201120Z AUTO 29007KT 9999 -SHSN FEW010 M10/M12 Q1007
EFKU - Kuopio (mil/Civ), Finland
Etäisyys Sääasemalta: Ko 146km
Päivitetty: 20/01/2019 13:20
Heikkoa Lumisadetta, Enimmäkseen pilvistä
Heikkoa Lumisadetta, Enimmäkseen pilvistä
 Tuulen suunta LLu
Tuuli: LLu 17 km/h
Lämpötila: -19°C
Tuulen purevuus: -28°C
Kastepiste: -21°C
Ilmankosteus: 84%
Ilmanpaine: 1003 hPa
Yhteenveto: Heikkoa Lumisadetta
Pilvisyys: Enimmäkseen pilvistä
Näkyvyys: 3 km
Pilvisyystiedot: Joitain Pilviä 914 m
Enimmäkseen pilvistä 1585 m
2019/01/20 11:20 EFKU 201120Z AUTO 30009KT 3000 -SN FEW030 BKN052 M19/M21 Q1003
EFSI - Seinajoki-Ilmajo, Finland
Etäisyys Sääasemalta: LLu 149km
Päivitetty: 20/01/2019 13:20
Heikkoa Lumisadetta, Enimmäkseen pilvistä
Heikkoa Lumisadetta, Enimmäkseen pilvistä
 Tuulen suunta LLu
Tuuli: LLu 11 km/h
Lämpötila: -9°C
Tuulen purevuus: -14°C
Kastepiste: -10°C
Ilmankosteus: 93%
Ilmanpaine: 1007 hPa
Yhteenveto: Heikkoa Lumisadetta
Pilvisyys: Enimmäkseen pilvistä
Näkyvyys: 6 km
Pilvisyystiedot: Puolipilvistä 427 m
Enimmäkseen pilvistä 549 m
Enimmäkseen pilvistä 823 m
2019/01/20 11:20 EFSI 201120Z AUTO 29006KT 6000 -SN SCT014 BKN018 BKN027 M09/M10 Q1007